Terminal Aerodrome Forecast
Issued by NWS Shreveport, LA

Home | Current Version | Previous Version | Text Only | Print | Product List | Glossary On
Versions: 1 2 3 4 5 6 7 8 9 10 11 12 13 14 15 16 17 18 19 20
000
FTUS44 KSHV 191141
TAFGGG
TAF
KGGG 191141Z 1912/2012 25005KT P6SM BKN006
      TEMPO 1912/1914 BKN006
     FM191400 20008KT P6SM SCT015 SCT140 SCT250
     FM191600 22013G21KT P6SM SCT030
     FM191900 24014G24KT P6SM SCT040
     FM192200 24012G18KT P6SM VCTS BKN040CB
     FM200300 27010G18KT P6SM SCT040=

USA.gov is the U.S. government's official web portal to all federal, state and local government web resources and services.